VOE2BC LFQQ-LICB
Flight info
| Callsign | VOE2BC |
|---|---|
| Flight time | 2h 25m |
| Altitude | 37000 |
| Route | CIV UM617 BUPAL UL607 SPI DCT ARCKY DCT LIRSU DCT KRH DCT BATUB DCT TIRUL Y740 NATAG DCT LORLO DCT RENTA DCT VABOK DCT GAVRA DCT VAKOR DCT LIBRO |
| Aircraft | A320/M-SDFGHIJ1RWY/LB1 |
Departure
| Time | 2026-04-21 15:18 |
|---|---|
| Airport | Lille Airport (LFQQ) |
Arrival
| Time | 2026-04-21 17:44 |
|---|---|
| Airport | Comiso Airport (LICB) |
| Time | Latitude | Longitude | Altitude | Speed | Heading |
|---|---|---|---|---|---|
| 2026-04-21 14:41 | 50.57087 | 3.10556 | 152 ft | 0 kts | 27° |
| 2026-04-21 15:10 | 50.57083 | 3.10553 | 151 ft | 3 kts | 27° |
| 2026-04-21 15:10 | 50.57059 | 3.10535 | 151 ft | 4 kts | 20° |
| 2026-04-21 15:11 | 50.57033 | 3.10524 | 151 ft | 4 kts | 359° |
| 2026-04-21 15:11 | 50.57015 | 3.10530 | 151 ft | 3 kts | 270° |
| 2026-04-21 15:11 | 50.57015 | 3.10542 | 151 ft | 0 kts | 257° |
| 2026-04-21 15:13 | 50.57008 | 3.10494 | 151 ft | 15 kts | 257° |
| 2026-04-21 15:13 | 50.56964 | 3.10311 | 151 ft | 17 kts | 205° |
| 2026-04-21 15:13 | 50.56855 | 3.10327 | 151 ft | 15 kts | 167° |
| 2026-04-21 15:14 | 50.56770 | 3.10288 | 151 ft | 14 kts | 246° |
| 2026-04-21 15:14 | 50.56737 | 3.10067 | 151 ft | 25 kts | 257° |
| 2026-04-21 15:14 | 50.56702 | 3.09816 | 151 ft | 22 kts | 257° |
| 2026-04-21 15:14 | 50.56669 | 3.09586 | 151 ft | 21 kts | 257° |
| 2026-04-21 15:15 | 50.56639 | 3.09377 | 151 ft | 19 kts | 257° |
| 2026-04-21 15:15 | 50.56611 | 3.09186 | 151 ft | 17 kts | 257° |
| 2026-04-21 15:15 | 50.56554 | 3.09055 | 151 ft | 15 kts | 188° |
| 2026-04-21 15:15 | 50.56446 | 3.09086 | 152 ft | 18 kts | 176° |
| 2026-04-21 15:16 | 50.56382 | 3.08959 | 152 ft | 17 kts | 256° |
| 2026-04-21 15:16 | 50.56354 | 3.08765 | 152 ft | 17 kts | 257° |
| 2026-04-21 15:16 | 50.56328 | 3.08579 | 152 ft | 20 kts | 259° |
| 2026-04-21 15:16 | 50.56349 | 3.08387 | 151 ft | 15 kts | 264° |
| 2026-04-21 15:17 | 50.56303 | 3.08401 | 152 ft | 8 kts | 67° |
| 2026-04-21 15:17 | 50.56309 | 3.08436 | 152 ft | 0 kts | 77° |
| 2026-04-21 15:17 | 50.56311 | 3.08456 | 152 ft | 16 kts | 77° |
| 2026-04-21 15:18 | 50.56391 | 3.09021 | 153 ft | 86 kts | 77° |
| 2026-04-21 15:18 | 50.56566 | 3.10242 | 153 ft | 141 kts | 77° |
| 2026-04-21 15:18 | 50.56792 | 3.11865 | 583 ft | 151 kts | 75° |
| 2026-04-21 15:18 | 50.56928 | 3.13474 | 1423 ft | 148 kts | 92° |
| 2026-04-21 15:19 | 50.56629 | 3.15060 | 1983 ft | 162 kts | 117° |
| 2026-04-21 15:19 | 50.55775 | 3.16406 | 2349 ft | 189 kts | 143° |
| 2026-04-21 15:19 | 50.54596 | 3.17596 | 2588 ft | 216 kts | 143° |
| 2026-04-21 15:19 | 50.53260 | 3.18940 | 2996 ft | 240 kts | 144° |
| 2026-04-21 15:20 | 50.51795 | 3.20390 | 3621 ft | 254 kts | 144° |
| 2026-04-21 15:20 | 50.50276 | 3.21882 | 4472 ft | 259 kts | 144° |
| 2026-04-21 15:20 | 50.48888 | 3.23673 | 5382 ft | 258 kts | 131° |
| 2026-04-21 15:20 | 50.47640 | 3.25703 | 6299 ft | 260 kts | 131° |
| 2026-04-21 15:21 | 50.46376 | 3.27761 | 7148 ft | 263 kts | 131° |
| 2026-04-21 15:21 | 50.45100 | 3.29849 | 7934 ft | 267 kts | 130° |
| 2026-04-21 15:21 | 50.43808 | 3.31960 | 8752 ft | 269 kts | 130° |
| 2026-04-21 15:21 | 50.42502 | 3.34089 | 9588 ft | 272 kts | 130° |
| 2026-04-21 15:22 | 50.41179 | 3.36239 | 10374 ft | 276 kts | 130° |
| 2026-04-21 15:22 | 50.39934 | 3.38623 | 10732 ft | 293 kts | 117° |
| 2026-04-21 15:22 | 50.39191 | 3.41679 | 10987 ft | 309 kts | 98° |
| 2026-04-21 15:22 | 50.39158 | 3.45071 | 11552 ft | 315 kts | 79° |
| 2026-04-21 15:23 | 50.39853 | 3.48325 | 12228 ft | 319 kts | 61° |
| 2026-04-21 15:23 | 50.41155 | 3.51165 | 12934 ft | 323 kts | 52° |
| 2026-04-21 15:23 | 50.42566 | 3.53936 | 13656 ft | 327 kts | 52° |
| 2026-04-21 15:23 | 50.43994 | 3.56737 | 14297 ft | 331 kts | 51° |
| 2026-04-21 15:24 | 50.45440 | 3.59575 | 14932 ft | 334 kts | 51° |
| 2026-04-21 15:24 | 50.46895 | 3.62439 | 15567 ft | 337 kts | 51° |
| 2026-04-21 15:24 | 50.48365 | 3.65341 | 16177 ft | 341 kts | 51° |
| 2026-04-21 15:24 | 50.49844 | 3.68272 | 16778 ft | 344 kts | 51° |
| 2026-04-21 15:25 | 50.51335 | 3.71235 | 17373 ft | 348 kts | 51° |
| 2026-04-21 15:25 | 50.52844 | 3.74238 | 17981 ft | 352 kts | 50° |
| 2026-04-21 15:25 | 50.54369 | 3.77265 | 18544 ft | 356 kts | 50° |
| 2026-04-21 15:25 | 50.55912 | 3.80332 | 19046 ft | 360 kts | 51° |
| 2026-04-21 15:26 | 50.57257 | 3.83615 | 19536 ft | 365 kts | 61° |
| 2026-04-21 15:26 | 50.58216 | 3.87399 | 20065 ft | 371 kts | 71° |
| 2026-04-21 15:26 | 50.58963 | 3.91248 | 20578 ft | 374 kts | 70° |
| 2026-04-21 15:26 | 50.59743 | 3.95225 | 21107 ft | 377 kts | 70° |
| 2026-04-21 15:27 | 50.60517 | 3.99139 | 21606 ft | 381 kts | 70° |
| 2026-04-21 15:27 | 50.61310 | 4.03132 | 22117 ft | 384 kts | 70° |
| 2026-04-21 15:27 | 50.62108 | 4.07162 | 22627 ft | 387 kts | 70° |
| 2026-04-21 15:27 | 50.62908 | 4.11239 | 23130 ft | 391 kts | 70° |
| 2026-04-21 15:28 | 50.63706 | 4.15345 | 23617 ft | 394 kts | 70° |
| 2026-04-21 15:28 | 50.64507 | 4.19492 | 24041 ft | 397 kts | 70° |
| 2026-04-21 15:28 | 50.65316 | 4.23679 | 24432 ft | 401 kts | 70° |
| 2026-04-21 15:28 | 50.66130 | 4.27886 | 24813 ft | 403 kts | 70° |
| 2026-04-21 15:29 | 50.66950 | 4.32134 | 25181 ft | 406 kts | 70° |
| 2026-04-21 15:29 | 50.67777 | 4.36412 | 25554 ft | 409 kts | 70° |
| 2026-04-21 15:29 | 50.68608 | 4.40721 | 25910 ft | 412 kts | 70° |
| 2026-04-21 15:29 | 50.69442 | 4.45063 | 26262 ft | 415 kts | 70° |
| 2026-04-21 15:30 | 50.70281 | 4.49450 | 26613 ft | 418 kts | 70° |
| 2026-04-21 15:30 | 50.71087 | 4.53871 | 26943 ft | 422 kts | 74° |
| 2026-04-21 15:30 | 50.71505 | 4.58480 | 27271 ft | 429 kts | 84° |
| 2026-04-21 15:30 | 50.71415 | 4.63209 | 27594 ft | 435 kts | 95° |
| 2026-04-21 15:31 | 50.70804 | 4.67905 | 27915 ft | 441 kts | 104° |
| 2026-04-21 15:31 | 50.69900 | 4.72549 | 28227 ft | 444 kts | 105° |
| 2026-04-21 15:31 | 50.68988 | 4.77214 | 28542 ft | 447 kts | 105° |
| 2026-04-21 15:31 | 50.68072 | 4.81909 | 28851 ft | 449 kts | 105° |
| 2026-04-21 15:32 | 50.67152 | 4.86630 | 29148 ft | 452 kts | 105° |
| 2026-04-21 15:32 | 50.66229 | 4.91368 | 29445 ft | 454 kts | 105° |
| 2026-04-21 15:32 | 50.65285 | 4.96140 | 29736 ft | 457 kts | 105° |
| 2026-04-21 15:32 | 50.64314 | 5.00925 | 30026 ft | 459 kts | 105° |
| 2026-04-21 15:33 | 50.63325 | 5.05718 | 30296 ft | 462 kts | 106° |
| 2026-04-21 15:33 | 50.62319 | 5.10539 | 30525 ft | 464 kts | 106° |
| 2026-04-21 15:33 | 50.61309 | 5.15372 | 30751 ft | 466 kts | 106° |
| 2026-04-21 15:33 | 50.60296 | 5.20235 | 30968 ft | 468 kts | 106° |
| 2026-04-21 15:34 | 50.59284 | 5.25105 | 31191 ft | 469 kts | 106° |
| 2026-04-21 15:34 | 50.58270 | 5.29995 | 31427 ft | 470 kts | 106° |
| 2026-04-21 15:34 | 50.57255 | 5.34875 | 31734 ft | 469 kts | 106° |
| 2026-04-21 15:34 | 50.56233 | 5.39755 | 32030 ft | 469 kts | 106° |
| 2026-04-21 15:35 | 50.55210 | 5.44627 | 32320 ft | 469 kts | 106° |
| 2026-04-21 15:35 | 50.54186 | 5.49499 | 32625 ft | 469 kts | 106° |
| 2026-04-21 15:35 | 50.53166 | 5.54354 | 32899 ft | 469 kts | 106° |
| 2026-04-21 15:35 | 50.52126 | 5.59217 | 33179 ft | 469 kts | 109° |
| 2026-04-21 15:36 | 50.50765 | 5.63880 | 33465 ft | 471 kts | 117° |
| 2026-04-21 15:36 | 50.49015 | 5.68241 | 33748 ft | 472 kts | 122° |
| 2026-04-21 15:36 | 50.47196 | 5.72537 | 34008 ft | 473 kts | 122° |
| 2026-04-21 15:37 | 50.41749 | 5.85419 | 34732 ft | 472 kts | 122° |
| 2026-04-21 15:37 | 50.40542 | 5.88271 | 34871 ft | 472 kts | 122° |
| 2026-04-21 15:37 | 50.38111 | 5.94006 | 35147 ft | 473 kts | 122° |
| 2026-04-21 15:38 | 50.35095 | 6.01089 | 35221 ft | 467 kts | 122° |
| 2026-04-21 15:38 | 50.31492 | 6.09524 | 35223 ft | 465 kts | 122° |
| 2026-04-21 15:39 | 50.28186 | 6.18195 | 35219 ft | 464 kts | 116° |
| 2026-04-21 15:39 | 50.25103 | 6.27052 | 35212 ft | 464 kts | 117° |
| 2026-04-21 15:40 | 50.21999 | 6.35885 | 35203 ft | 464 kts | 117° |
| 2026-04-21 15:40 | 50.18827 | 6.44665 | 35197 ft | 465 kts | 122° |
| 2026-04-21 15:41 | 50.14794 | 6.52553 | 35196 ft | 466 kts | 129° |
| 2026-04-21 15:41 | 50.10616 | 6.60281 | 35195 ft | 466 kts | 129° |
| 2026-04-21 15:42 | 50.06438 | 6.67992 | 35192 ft | 466 kts | 129° |
| 2026-04-21 15:42 | 50.02247 | 6.75702 | 35190 ft | 467 kts | 129° |
| 2026-04-21 15:43 | 49.98053 | 6.83392 | 35190 ft | 467 kts | 129° |
| 2026-04-21 15:43 | 49.93847 | 6.91083 | 35199 ft | 466 kts | 129° |
| 2026-04-21 15:44 | 49.89658 | 6.98734 | 35210 ft | 465 kts | 129° |
| 2026-04-21 15:44 | 49.85470 | 7.06366 | 35211 ft | 464 kts | 129° |
| 2026-04-21 15:45 | 49.81288 | 7.13963 | 35212 ft | 463 kts | 129° |
| 2026-04-21 15:45 | 49.77132 | 7.21480 | 35208 ft | 463 kts | 129° |
| 2026-04-21 15:46 | 49.72946 | 7.29032 | 35204 ft | 462 kts | 129° |
| 2026-04-21 15:46 | 49.68752 | 7.36564 | 35203 ft | 462 kts | 130° |
| 2026-04-21 15:47 | 49.64554 | 7.44086 | 35194 ft | 462 kts | 130° |
| 2026-04-21 15:47 | 49.60360 | 7.51588 | 35185 ft | 462 kts | 130° |
| 2026-04-21 15:48 | 49.56153 | 7.59095 | 35175 ft | 463 kts | 130° |
| 2026-04-21 15:48 | 49.51937 | 7.66589 | 35174 ft | 463 kts | 130° |
| 2026-04-21 15:49 | 49.47722 | 7.74064 | 35176 ft | 463 kts | 130° |
| 2026-04-21 15:49 | 49.43494 | 7.81537 | 35176 ft | 463 kts | 130° |
| 2026-04-21 15:50 | 49.39262 | 7.88993 | 35176 ft | 463 kts | 130° |
| 2026-04-21 15:50 | 49.35030 | 7.96435 | 35183 ft | 463 kts | 130° |
| 2026-04-21 15:51 | 49.30785 | 8.03873 | 35190 ft | 463 kts | 130° |
| 2026-04-21 15:51 | 49.26543 | 8.11298 | 35185 ft | 463 kts | 130° |
| 2026-04-21 15:52 | 49.22295 | 8.18714 | 35189 ft | 463 kts | 131° |
| 2026-04-21 15:52 | 49.18036 | 8.26104 | 35177 ft | 464 kts | 131° |
| 2026-04-21 15:53 | 49.13763 | 8.33496 | 35170 ft | 464 kts | 131° |
| 2026-04-21 15:53 | 49.09506 | 8.40852 | 35170 ft | 464 kts | 131° |
| 2026-04-21 15:54 | 49.05223 | 8.48239 | 35167 ft | 465 kts | 131° |
| 2026-04-21 15:54 | 49.00933 | 8.55605 | 35169 ft | 465 kts | 133° |
| 2026-04-21 15:55 | 48.95975 | 8.61858 | 35166 ft | 464 kts | 147° |
| 2026-04-21 15:55 | 48.90619 | 8.67329 | 35163 ft | 464 kts | 147° |
| 2026-04-21 15:56 | 48.85257 | 8.72808 | 35158 ft | 465 kts | 147° |
| 2026-04-21 15:56 | 48.79891 | 8.78306 | 35154 ft | 465 kts | 147° |
| 2026-04-21 15:57 | 48.74558 | 8.83762 | 35152 ft | 466 kts | 147° |
| 2026-04-21 15:57 | 48.69171 | 8.89247 | 35148 ft | 467 kts | 147° |
| 2026-04-21 15:58 | 48.63769 | 8.94702 | 35148 ft | 467 kts | 148° |
| 2026-04-21 15:58 | 48.58354 | 9.00168 | 35147 ft | 468 kts | 148° |
| 2026-04-21 15:59 | 48.52939 | 9.05629 | 35147 ft | 469 kts | 148° |
| 2026-04-21 15:59 | 48.47509 | 9.11089 | 35145 ft | 469 kts | 148° |
| 2026-04-21 16:00 | 48.42069 | 9.16543 | 35142 ft | 470 kts | 148° |
| 2026-04-21 16:00 | 48.36616 | 9.22006 | 35148 ft | 471 kts | 148° |
| 2026-04-21 16:01 | 48.31155 | 9.27456 | 35140 ft | 471 kts | 148° |
| 2026-04-21 16:01 | 48.25687 | 9.32896 | 35143 ft | 472 kts | 148° |
| 2026-04-21 16:02 | 48.20209 | 9.38333 | 35141 ft | 472 kts | 148° |
| 2026-04-21 16:02 | 48.14722 | 9.43764 | 35134 ft | 473 kts | 149° |
| 2026-04-21 16:03 | 48.09219 | 9.49183 | 35136 ft | 473 kts | 149° |
| 2026-04-21 16:03 | 48.03720 | 9.54604 | 35127 ft | 474 kts | 149° |
| 2026-04-21 16:04 | 47.98272 | 9.60031 | 35124 ft | 474 kts | 148° |
| 2026-04-21 16:04 | 47.92805 | 9.65649 | 35109 ft | 475 kts | 147° |
| 2026-04-21 16:05 | 47.90126 | 9.68422 | 35109 ft | 475 kts | 147° |
| 2026-04-21 16:05 | 47.85446 | 9.73240 | 35104 ft | 475 kts | 148° |
| 2026-04-21 16:06 | 47.80028 | 9.78745 | 35105 ft | 475 kts | 148° |
| 2026-04-21 16:06 | 47.74559 | 9.84264 | 35101 ft | 475 kts | 148° |
| 2026-04-21 16:07 | 47.69087 | 9.89783 | 35096 ft | 476 kts | 148° |
| 2026-04-21 16:07 | 47.63617 | 9.95307 | 35098 ft | 476 kts | 148° |
| 2026-04-21 16:08 | 47.55403 | 10.03583 | 35093 ft | 476 kts | 148° |
| 2026-04-21 16:09 | 47.49921 | 10.09080 | 35087 ft | 476 kts | 149° |
| 2026-04-21 16:09 | 47.44428 | 10.14564 | 35081 ft | 476 kts | 149° |
| 2026-04-21 16:10 | 47.38932 | 10.20037 | 35077 ft | 476 kts | 149° |
| 2026-04-21 16:10 | 47.33440 | 10.25497 | 35068 ft | 476 kts | 149° |
| 2026-04-21 16:11 | 47.27944 | 10.30957 | 35062 ft | 476 kts | 149° |
| 2026-04-21 16:11 | 47.22446 | 10.36399 | 35059 ft | 476 kts | 149° |
| 2026-04-21 16:12 | 47.17876 | 10.40907 | 35058 ft | 476 kts | 149° |
| 2026-04-21 16:12 | 47.11442 | 10.47242 | 35048 ft | 476 kts | 149° |
| 2026-04-21 16:13 | 47.05849 | 10.52395 | 35032 ft | 472 kts | 159° |
| 2026-04-21 16:13 | 46.99732 | 10.55604 | 35014 ft | 465 kts | 168° |
| 2026-04-21 16:14 | 46.93533 | 10.58391 | 35018 ft | 466 kts | 168° |
| 2026-04-21 16:14 | 46.87337 | 10.61185 | 35006 ft | 467 kts | 168° |
| 2026-04-21 16:15 | 46.81181 | 10.63952 | 34993 ft | 466 kts | 168° |
| 2026-04-21 16:15 | 46.75530 | 10.66487 | 34989 ft | 466 kts | 168° |
| 2026-04-21 16:16 | 46.69332 | 10.69271 | 34973 ft | 466 kts | 169° |
| 2026-04-21 16:16 | 46.63141 | 10.72016 | 34962 ft | 466 kts | 169° |
| 2026-04-21 16:17 | 46.56944 | 10.74749 | 34952 ft | 466 kts | 169° |
| 2026-04-21 16:17 | 46.50749 | 10.77481 | 34952 ft | 466 kts | 169° |
| 2026-04-21 16:18 | 46.44550 | 10.80217 | 34953 ft | 466 kts | 169° |
| 2026-04-21 16:18 | 46.38346 | 10.82941 | 34953 ft | 466 kts | 169° |
| 2026-04-21 16:19 | 46.32134 | 10.85657 | 34961 ft | 466 kts | 170° |
| 2026-04-21 16:19 | 46.25913 | 10.88328 | 34975 ft | 467 kts | 171° |
| 2026-04-21 16:20 | 46.19675 | 10.90912 | 34978 ft | 466 kts | 171° |
| 2026-04-21 16:20 | 46.13445 | 10.93481 | 34975 ft | 466 kts | 171° |
| 2026-04-21 16:21 | 46.07215 | 10.96054 | 34979 ft | 466 kts | 171° |
| 2026-04-21 16:21 | 46.00989 | 10.98632 | 34969 ft | 465 kts | 171° |
| 2026-04-21 16:22 | 45.95816 | 11.00775 | 34971 ft | 465 kts | 171° |
| 2026-04-21 16:22 | 45.88557 | 11.03764 | 34968 ft | 464 kts | 171° |
| 2026-04-21 16:23 | 45.82343 | 11.06305 | 34975 ft | 464 kts | 171° |
| 2026-04-21 16:23 | 45.76133 | 11.08843 | 34990 ft | 464 kts | 171° |
| 2026-04-21 16:24 | 45.70975 | 11.10950 | 34990 ft | 464 kts | 171° |
| 2026-04-21 16:24 | 45.63769 | 11.13889 | 34981 ft | 463 kts | 171° |
| 2026-04-21 16:25 | 45.57574 | 11.16407 | 34977 ft | 462 kts | 171° |
| 2026-04-21 16:25 | 45.52070 | 11.18640 | 34967 ft | 462 kts | 171° |
| 2026-04-21 16:26 | 45.46898 | 11.20740 | 34967 ft | 461 kts | 171° |
| 2026-04-21 16:26 | 45.40714 | 11.23238 | 34962 ft | 461 kts | 171° |
| 2026-04-21 16:27 | 45.34535 | 11.25722 | 34968 ft | 461 kts | 171° |
| 2026-04-21 16:27 | 45.28355 | 11.28201 | 34972 ft | 461 kts | 172° |
| 2026-04-21 16:28 | 45.22163 | 11.30547 | 34976 ft | 460 kts | 173° |
| 2026-04-21 16:28 | 45.16000 | 11.32767 | 34977 ft | 460 kts | 173° |
| 2026-04-21 16:29 | 45.09757 | 11.35018 | 34975 ft | 460 kts | 173° |
| 2026-04-21 16:29 | 45.03558 | 11.37299 | 34973 ft | 460 kts | 172° |
| 2026-04-21 16:30 | 44.97358 | 11.39582 | 34973 ft | 460 kts | 172° |
| 2026-04-21 16:30 | 44.91163 | 11.41848 | 34969 ft | 460 kts | 172° |
| 2026-04-21 16:31 | 44.84967 | 11.44105 | 34983 ft | 460 kts | 172° |
| 2026-04-21 16:31 | 44.78815 | 11.46341 | 34976 ft | 460 kts | 172° |
| 2026-04-21 16:32 | 44.72620 | 11.48589 | 34972 ft | 460 kts | 172° |
| 2026-04-21 16:32 | 44.66427 | 11.50832 | 34972 ft | 460 kts | 172° |
| 2026-04-21 16:33 | 44.60234 | 11.53072 | 34967 ft | 459 kts | 172° |
| 2026-04-21 16:33 | 44.54042 | 11.55298 | 34967 ft | 459 kts | 172° |
| 2026-04-21 16:34 | 44.47854 | 11.57518 | 34968 ft | 459 kts | 172° |
| 2026-04-21 16:34 | 44.42195 | 11.59555 | 34969 ft | 459 kts | 172° |
| 2026-04-21 16:35 | 44.36007 | 11.61775 | 34976 ft | 459 kts | 172° |
| 2026-04-21 16:35 | 44.29818 | 11.63997 | 34983 ft | 459 kts | 172° |
| 2026-04-21 16:36 | 44.23628 | 11.66207 | 34987 ft | 459 kts | 172° |
| 2026-04-21 16:36 | 44.17475 | 11.68391 | 34982 ft | 459 kts | 172° |
| 2026-04-21 16:37 | 44.11242 | 11.70609 | 34977 ft | 459 kts | 172° |
| 2026-04-21 16:37 | 44.05099 | 11.72793 | 34977 ft | 458 kts | 172° |
| 2026-04-21 16:38 | 43.98920 | 11.74972 | 34972 ft | 458 kts | 172° |
| 2026-04-21 16:38 | 43.92746 | 11.77149 | 34963 ft | 458 kts | 172° |
| 2026-04-21 16:39 | 43.86571 | 11.79319 | 34963 ft | 458 kts | 172° |
| 2026-04-21 16:39 | 43.80401 | 11.81495 | 34955 ft | 457 kts | 172° |
| 2026-04-21 16:40 | 43.74314 | 11.84151 | 34948 ft | 462 kts | 165° |
| 2026-04-21 16:40 | 43.68283 | 11.87224 | 34953 ft | 462 kts | 165° |
| 2026-04-21 16:41 | 43.62263 | 11.90300 | 34957 ft | 461 kts | 165° |
| 2026-04-21 16:41 | 43.56241 | 11.93363 | 34945 ft | 461 kts | 165° |
| 2026-04-21 16:42 | 43.50219 | 11.96414 | 34946 ft | 461 kts | 165° |
| 2026-04-21 16:42 | 43.44202 | 11.99461 | 34936 ft | 461 kts | 165° |
| 2026-04-21 16:43 | 43.38185 | 12.02501 | 34933 ft | 461 kts | 165° |
| 2026-04-21 16:43 | 43.32167 | 12.05542 | 34932 ft | 460 kts | 165° |
| 2026-04-21 16:44 | 43.26157 | 12.08567 | 34929 ft | 460 kts | 165° |
| 2026-04-21 16:44 | 43.20147 | 12.11577 | 34923 ft | 460 kts | 165° |
| 2026-04-21 16:45 | 43.14132 | 12.14580 | 34923 ft | 460 kts | 165° |
| 2026-04-21 16:45 | 43.08125 | 12.17588 | 34925 ft | 460 kts | 165° |
| 2026-04-21 16:46 | 43.02119 | 12.20590 | 34924 ft | 459 kts | 165° |
| 2026-04-21 16:46 | 42.96112 | 12.23580 | 34925 ft | 459 kts | 165° |
| 2026-04-21 16:47 | 42.90116 | 12.26553 | 34924 ft | 459 kts | 165° |
| 2026-04-21 16:47 | 42.84116 | 12.29518 | 34921 ft | 458 kts | 165° |
| 2026-04-21 16:48 | 42.78164 | 12.32465 | 34913 ft | 458 kts | 165° |
| 2026-04-21 16:48 | 42.72172 | 12.35431 | 34907 ft | 458 kts | 165° |
| 2026-04-21 16:49 | 42.66143 | 12.38401 | 34909 ft | 458 kts | 165° |
| 2026-04-21 16:49 | 42.60187 | 12.41324 | 34906 ft | 458 kts | 165° |
| 2026-04-21 16:50 | 42.54197 | 12.44267 | 34905 ft | 458 kts | 165° |
| 2026-04-21 16:50 | 42.48206 | 12.47210 | 34915 ft | 458 kts | 165° |
| 2026-04-21 16:51 | 42.42204 | 12.50138 | 34921 ft | 458 kts | 165° |
| 2026-04-21 16:51 | 42.36210 | 12.53052 | 34935 ft | 458 kts | 165° |
| 2026-04-21 16:52 | 42.30210 | 12.55971 | 34925 ft | 458 kts | 165° |
| 2026-04-21 16:52 | 42.24210 | 12.58889 | 34930 ft | 458 kts | 165° |
| 2026-04-21 16:53 | 42.18217 | 12.61799 | 34911 ft | 458 kts | 165° |
| 2026-04-21 16:53 | 42.12224 | 12.64694 | 34908 ft | 457 kts | 165° |
| 2026-04-21 16:54 | 42.06237 | 12.67585 | 34914 ft | 457 kts | 165° |
| 2026-04-21 16:54 | 42.00245 | 12.70478 | 34915 ft | 457 kts | 165° |
| 2026-04-21 16:55 | 41.94260 | 12.73352 | 34917 ft | 457 kts | 165° |
| 2026-04-21 16:55 | 41.88280 | 12.76223 | 34916 ft | 457 kts | 165° |
| 2026-04-21 16:56 | 41.82293 | 12.79088 | 34916 ft | 456 kts | 165° |
| 2026-04-21 16:56 | 41.76324 | 12.81941 | 34915 ft | 456 kts | 165° |
| 2026-04-21 16:57 | 41.70339 | 12.84794 | 34916 ft | 456 kts | 165° |
| 2026-04-21 16:57 | 41.64360 | 12.87638 | 34915 ft | 456 kts | 165° |
| 2026-04-21 16:58 | 41.58381 | 12.90476 | 34917 ft | 456 kts | 165° |
| 2026-04-21 16:58 | 41.52410 | 12.93314 | 34914 ft | 456 kts | 165° |
| 2026-04-21 16:59 | 41.46475 | 12.96138 | 34919 ft | 455 kts | 165° |
| 2026-04-21 16:59 | 41.40502 | 12.98956 | 34919 ft | 455 kts | 165° |
| 2026-04-21 17:00 | 41.35500 | 13.01307 | 34919 ft | 455 kts | 165° |
| 2026-04-21 17:00 | 41.29526 | 13.04107 | 34917 ft | 455 kts | 165° |
| 2026-04-21 17:01 | 41.22587 | 13.07371 | 34921 ft | 455 kts | 165° |
| 2026-04-21 17:01 | 41.16618 | 13.10176 | 34930 ft | 455 kts | 165° |
| 2026-04-21 17:02 | 41.10644 | 13.12970 | 34928 ft | 455 kts | 165° |
| 2026-04-21 17:02 | 41.04667 | 13.15751 | 34927 ft | 455 kts | 165° |
| 2026-04-21 17:03 | 40.98694 | 13.18533 | 34926 ft | 455 kts | 165° |
| 2026-04-21 17:03 | 40.92713 | 13.21313 | 34928 ft | 456 kts | 165° |
| 2026-04-21 17:04 | 40.86731 | 13.24091 | 34928 ft | 456 kts | 165° |
| 2026-04-21 17:04 | 40.80746 | 13.26863 | 34924 ft | 456 kts | 165° |
| 2026-04-21 17:05 | 40.74761 | 13.29632 | 34927 ft | 456 kts | 165° |
| 2026-04-21 17:05 | 40.68778 | 13.32395 | 34927 ft | 456 kts | 165° |
| 2026-04-21 17:06 | 40.62789 | 13.35154 | 34929 ft | 456 kts | 165° |
| 2026-04-21 17:06 | 40.56800 | 13.37906 | 34930 ft | 456 kts | 165° |
| 2026-04-21 17:07 | 40.51821 | 13.40193 | 34933 ft | 456 kts | 165° |
| 2026-04-21 17:07 | 40.44823 | 13.43406 | 34932 ft | 456 kts | 165° |
| 2026-04-21 17:08 | 40.38833 | 13.46134 | 34933 ft | 456 kts | 165° |
| 2026-04-21 17:08 | 40.32883 | 13.48840 | 34934 ft | 456 kts | 165° |
| 2026-04-21 17:09 | 40.23897 | 13.52934 | 34930 ft | 456 kts | 165° |
| 2026-04-21 17:09 | 40.17906 | 13.55651 | 34930 ft | 456 kts | 165° |
| 2026-04-21 17:10 | 40.11919 | 13.58370 | 34939 ft | 456 kts | 165° |
| 2026-04-21 17:10 | 40.05920 | 13.61091 | 34957 ft | 457 kts | 167° |
| 2026-04-21 17:11 | 39.99906 | 13.63806 | 34929 ft | 458 kts | 167° |
| 2026-04-21 17:11 | 39.93878 | 13.66522 | 34924 ft | 458 kts | 167° |
| 2026-04-21 17:12 | 39.87851 | 13.69242 | 34922 ft | 459 kts | 167° |
| 2026-04-21 17:12 | 39.81811 | 13.71948 | 34925 ft | 459 kts | 167° |
| 2026-04-21 17:13 | 39.76792 | 13.74192 | 34930 ft | 459 kts | 167° |
| 2026-04-21 17:13 | 39.70751 | 13.76897 | 34931 ft | 459 kts | 167° |
| 2026-04-21 17:14 | 39.64750 | 13.79584 | 34937 ft | 459 kts | 167° |
| 2026-04-21 17:14 | 39.58857 | 13.82219 | 34938 ft | 459 kts | 167° |
| 2026-04-21 17:15 | 39.52810 | 13.84909 | 34934 ft | 459 kts | 167° |
| 2026-04-21 17:15 | 39.46771 | 13.87579 | 34936 ft | 459 kts | 167° |
| 2026-04-21 17:16 | 39.40733 | 13.90258 | 34933 ft | 459 kts | 166° |
| 2026-04-21 17:16 | 39.34699 | 13.92943 | 34938 ft | 458 kts | 166° |
| 2026-04-21 17:17 | 39.28666 | 13.95614 | 34948 ft | 458 kts | 167° |
| 2026-04-21 17:17 | 39.22637 | 13.98280 | 34950 ft | 458 kts | 166° |
| 2026-04-21 17:18 | 39.16617 | 14.00937 | 34943 ft | 457 kts | 166° |
| 2026-04-21 17:18 | 39.10596 | 14.03577 | 34944 ft | 457 kts | 167° |
| 2026-04-21 17:19 | 39.04575 | 14.06204 | 34948 ft | 457 kts | 167° |
| 2026-04-21 17:19 | 38.98553 | 14.08830 | 34946 ft | 456 kts | 167° |
| 2026-04-21 17:20 | 38.92545 | 14.11458 | 34941 ft | 456 kts | 166° |
| 2026-04-21 17:20 | 38.86897 | 14.13924 | 34941 ft | 456 kts | 166° |
| 2026-04-21 17:21 | 38.80834 | 14.16085 | 34943 ft | 450 kts | 174° |
| 2026-04-21 17:21 | 38.74703 | 14.17667 | 34944 ft | 449 kts | 174° |
| 2026-04-21 17:22 | 38.68576 | 14.19259 | 34946 ft | 449 kts | 174° |
| 2026-04-21 17:22 | 38.62453 | 14.20846 | 34944 ft | 449 kts | 174° |
| 2026-04-21 17:23 | 38.56336 | 14.22434 | 34931 ft | 449 kts | 174° |
| 2026-04-21 17:23 | 38.50229 | 14.24013 | 34907 ft | 452 kts | 174° |
| 2026-04-21 17:24 | 38.44001 | 14.25621 | 34909 ft | 455 kts | 174° |
| 2026-04-21 17:24 | 38.37824 | 14.27210 | 34664 ft | 458 kts | 174° |
| 2026-04-21 17:25 | 38.34724 | 14.28001 | 33785 ft | 464 kts | 174° |
| 2026-04-21 17:25 | 38.31561 | 14.28811 | 33027 ft | 463 kts | 174° |
| 2026-04-21 17:25 | 38.28407 | 14.29623 | 32410 ft | 460 kts | 174° |
| 2026-04-21 17:25 | 38.25287 | 14.30430 | 31845 ft | 456 kts | 174° |
| 2026-04-21 17:26 | 38.22190 | 14.31230 | 31298 ft | 452 kts | 174° |
| 2026-04-21 17:26 | 38.19126 | 14.32020 | 30772 ft | 448 kts | 174° |
| 2026-04-21 17:26 | 38.16082 | 14.32799 | 30258 ft | 444 kts | 174° |
| 2026-04-21 17:26 | 38.13067 | 14.33568 | 29711 ft | 441 kts | 174° |
| 2026-04-21 17:27 | 38.10068 | 14.34333 | 29129 ft | 437 kts | 174° |
| 2026-04-21 17:27 | 38.07100 | 14.35088 | 28566 ft | 434 kts | 174° |
| 2026-04-21 17:27 | 38.04156 | 14.35834 | 27988 ft | 428 kts | 174° |
| 2026-04-21 17:27 | 38.01258 | 14.36572 | 27074 ft | 422 kts | 173° |
| 2026-04-21 17:28 | 37.98390 | 14.37303 | 26197 ft | 418 kts | 173° |
| 2026-04-21 17:28 | 37.95562 | 14.38023 | 25379 ft | 413 kts | 173° |
| 2026-04-21 17:28 | 37.92761 | 14.38737 | 24580 ft | 408 kts | 173° |
| 2026-04-21 17:28 | 37.89991 | 14.39438 | 23801 ft | 404 kts | 173° |
| 2026-04-21 17:29 | 37.87251 | 14.40130 | 22951 ft | 399 kts | 173° |
| 2026-04-21 17:29 | 37.84541 | 14.40812 | 22082 ft | 395 kts | 173° |
| 2026-04-21 17:29 | 37.81856 | 14.41491 | 21592 ft | 391 kts | 172° |
| 2026-04-21 17:29 | 37.79197 | 14.42164 | 21108 ft | 389 kts | 172° |
| 2026-04-21 17:30 | 37.76551 | 14.42835 | 20690 ft | 385 kts | 172° |
| 2026-04-21 17:30 | 37.73926 | 14.43501 | 20219 ft | 383 kts | 172° |
| 2026-04-21 17:30 | 37.71318 | 14.44161 | 19708 ft | 382 kts | 172° |
| 2026-04-21 17:30 | 37.68748 | 14.44810 | 19187 ft | 371 kts | 172° |
| 2026-04-21 17:31 | 37.66265 | 14.45438 | 18729 ft | 359 kts | 172° |
| 2026-04-21 17:31 | 37.63856 | 14.46046 | 18292 ft | 348 kts | 172° |
| 2026-04-21 17:31 | 37.61515 | 14.46630 | 17856 ft | 336 kts | 173° |
| 2026-04-21 17:31 | 37.59250 | 14.47139 | 17680 ft | 328 kts | 174° |
| 2026-04-21 17:32 | 37.57001 | 14.47600 | 17307 ft | 327 kts | 175° |
| 2026-04-21 17:32 | 37.54774 | 14.48038 | 16913 ft | 326 kts | 175° |
| 2026-04-21 17:32 | 37.52567 | 14.48469 | 16525 ft | 326 kts | 175° |
| 2026-04-21 17:32 | 37.50319 | 14.48912 | 16136 ft | 327 kts | 175° |
| 2026-04-21 17:33 | 37.48013 | 14.49374 | 15787 ft | 329 kts | 175° |
| 2026-04-21 17:33 | 37.45747 | 14.49833 | 15355 ft | 331 kts | 174° |
| 2026-04-21 17:33 | 37.43475 | 14.50300 | 14964 ft | 331 kts | 174° |
| 2026-04-21 17:33 | 37.41202 | 14.50779 | 14362 ft | 334 kts | 174° |
| 2026-04-21 17:34 | 37.38887 | 14.51255 | 13463 ft | 339 kts | 174° |
| 2026-04-21 17:34 | 37.36568 | 14.51726 | 12738 ft | 334 kts | 174° |
| 2026-04-21 17:34 | 37.34324 | 14.52185 | 12330 ft | 320 kts | 174° |
| 2026-04-21 17:34 | 37.32170 | 14.52626 | 11929 ft | 308 kts | 174° |
| 2026-04-21 17:35 | 37.30095 | 14.53050 | 11546 ft | 297 kts | 175° |
| 2026-04-21 17:35 | 37.28064 | 14.53463 | 11172 ft | 296 kts | 175° |
| 2026-04-21 17:35 | 37.26024 | 14.53876 | 10785 ft | 297 kts | 175° |
| 2026-04-21 17:35 | 37.23988 | 14.54287 | 10394 ft | 297 kts | 175° |
| 2026-04-21 17:36 | 37.21943 | 14.54698 | 9997 ft | 298 kts | 174° |
| 2026-04-21 17:36 | 37.19890 | 14.55114 | 9557 ft | 300 kts | 174° |
| 2026-04-21 17:36 | 37.17827 | 14.55534 | 9071 ft | 302 kts | 174° |
| 2026-04-21 17:36 | 37.15746 | 14.55957 | 8587 ft | 303 kts | 174° |
| 2026-04-21 17:37 | 37.13725 | 14.56370 | 8112 ft | 293 kts | 174° |
| 2026-04-21 17:37 | 37.11764 | 14.56773 | 7659 ft | 283 kts | 174° |
| 2026-04-21 17:37 | 37.10493 | 14.57034 | 7374 ft | 277 kts | 174° |
| 2026-04-21 17:37 | 37.07972 | 14.57548 | 6816 ft | 265 kts | 174° |
| 2026-04-21 17:38 | 37.06186 | 14.57912 | 6415 ft | 256 kts | 174° |
| 2026-04-21 17:38 | 37.04460 | 14.58263 | 6025 ft | 247 kts | 174° |
| 2026-04-21 17:38 | 37.02790 | 14.58635 | 5636 ft | 242 kts | 166° |
| 2026-04-21 17:38 | 37.01475 | 14.59645 | 5312 ft | 242 kts | 130° |
| 2026-04-21 17:39 | 37.00847 | 14.61601 | 4909 ft | 244 kts | 89° |
| 2026-04-21 17:39 | 37.01282 | 14.63538 | 4444 ft | 236 kts | 52° |
| 2026-04-21 17:39 | 37.02311 | 14.65102 | 3989 ft | 231 kts | 47° |
| 2026-04-21 17:39 | 37.03348 | 14.66617 | 3633 ft | 225 kts | 48° |
| 2026-04-21 17:40 | 37.04305 | 14.68101 | 3506 ft | 215 kts | 51° |
| 2026-04-21 17:40 | 37.05169 | 14.69574 | 3476 ft | 202 kts | 62° |
| 2026-04-21 17:40 | 37.05404 | 14.71180 | 3581 ft | 181 kts | 103° |
| 2026-04-21 17:40 | 37.04743 | 14.72380 | 3607 ft | 166 kts | 158° |
| 2026-04-21 17:41 | 37.03678 | 14.72364 | 3607 ft | 153 kts | 220° |
| 2026-04-21 17:41 | 37.03155 | 14.71258 | 3253 ft | 156 kts | 254° |
| 2026-04-21 17:41 | 37.02849 | 14.69907 | 2768 ft | 163 kts | 256° |
| 2026-04-21 17:41 | 37.02575 | 14.68560 | 2484 ft | 157 kts | 256° |
| 2026-04-21 17:42 | 37.02312 | 14.67250 | 2171 ft | 154 kts | 256° |
| 2026-04-21 17:42 | 37.02036 | 14.65960 | 1851 ft | 153 kts | 255° |
| 2026-04-21 17:42 | 37.01739 | 14.64681 | 1501 ft | 151 kts | 251° |
| 2026-04-21 17:42 | 37.01298 | 14.63518 | 1211 ft | 146 kts | 237° |
| 2026-04-21 17:43 | 37.00676 | 14.62538 | 919 ft | 143 kts | 231° |
| 2026-04-21 17:43 | 37.00050 | 14.61590 | 725 ft | 134 kts | 231° |
| 2026-04-21 17:43 | 36.99539 | 14.60824 | 721 ft | 91 kts | 230° |
| 2026-04-21 17:43 | 36.99172 | 14.60276 | 720 ft | 71 kts | 229° |
| 2026-04-21 17:44 | 36.98952 | 14.59949 | 721 ft | 32 kts | 230° |
| 2026-04-21 17:44 | 36.98854 | 14.59793 | 724 ft | 20 kts | 245° |
| 2026-04-21 17:44 | 36.98826 | 14.59717 | 724 ft | 7 kts | 152° |
| 2026-04-21 17:44 | 36.98835 | 14.59771 | 723 ft | 11 kts | 52° |
| 2026-04-21 17:45 | 36.98922 | 14.59901 | 721 ft | 25 kts | 50° |
| 2026-04-21 17:45 | 36.99038 | 14.60075 | 721 ft | 27 kts | 49° |
| 2026-04-21 17:45 | 36.99163 | 14.60261 | 720 ft | 29 kts | 50° |
| 2026-04-21 17:45 | 36.99294 | 14.60455 | 721 ft | 30 kts | 50° |
| 2026-04-21 17:46 | 36.99437 | 14.60642 | 722 ft | 27 kts | 36° |
| 2026-04-21 17:46 | 36.99599 | 14.60731 | 724 ft | 22 kts | 20° |
| 2026-04-21 17:46 | 36.99657 | 14.60758 | 721 ft | 4 kts | 19° |
| 2026-04-21 17:46 | 36.99716 | 14.60787 | 721 ft | 7 kts | 11° |
| 2026-04-21 17:47 | 36.99750 | 14.60768 | 722 ft | 2 kts | 321° |
| 2026-04-21 17:47 | 36.99759 | 14.60758 | 721 ft | 1 kts | 320° |
| 2026-04-21 17:47 | 36.99768 | 14.60749 | 721 ft | 2 kts | 322° |
| 2026-04-21 17:47 | 36.99777 | 14.60747 | 722 ft | 1 kts | 348° |